Airfield :
LOGIN :

Register | Disclaimer

   EN    FR    IT 

 










Legend :    VFR   Marginal VFR   IFR   Intensive IFR   Very Intensive IFR
Visi :
Ceiling :
>= 8 km
>= 3000ft
5 to 8 km
1000 to 3000 ft
1500m to 5 km
500 to 1000 ft
800 to 1500m
200 to 500 ft
< 800m
< 200 ft
Symbols :   Thunderstorms  Fog  Heavy snow  Heavy precipitations  Wind > 20 kt
SIGMETs :     Misc.  Thunderstorms  Icing  Turbulence  Mountain Waves  Volcanic Ashes






- Airport Elevation : 79 ft
- IATA code : NSY


LICZ - Sigonella (Mil) Catania

CURRENT METAR :
  • 031955Z 09006KT 9999 SCT015 BKN070 11/11 Q1009 RMK BKN VIS MIN 9999 WIND THR28 09006KT WIND THR10 09005KT A2981 BLU

EXPIRED METARs :
  • 031855Z 12004KT 9999 SCT025 BKN070 11/11 Q1008 RMK BKN VIS MIN 9999 WIND THR28 10003KT WIND THR10 13003KT A2978 BLU
  • 031755Z 11006KT 9999 SCT025 BKN070 12/12 Q1008 RMK BKN VIS MIN 9999 WIND THR28 11005KT WIND THR10 11005KT A2978 BLU

TAF TAF LICZ
Valid from the 03 at 18:00 until the 04 at 18:00 UTC


031700Z 0318/0418 09007KT 9999 SCT015 SCT030 BKN070
TEMPO 0318/0402 6000 RA BKN025
BECMG 0408/0410 VRB03KT 9999 SCT025



MET'MAP, your aeronautical weather chart ! - Copyright ORBIFLY December 2007 - Disclaimer

ORBIFLY MET'MAP TEAM :

Programming & Development : Alexandra Zaïnal
Concept & original design : Baudouin d'Aumeries
Assistance for programming : Marc-Olivier Méhu
Technical & hardware support : Manuel Goepfert

Contact : metmap@orbifly.com




SOURCES & CREDITS :

   NOAA